Time;durP1;ratioP1;P1;durP2;ratioP2;P2;SDS_P1;SDS_P2;PMS_P1;PMS_P2;Temp;Humidity;BMP_temperature;BMP_pressure;BME280_temperature;BME280_humidity;BME280_pressure;Samples;Min_cycle;Max_cycle;Signal;HPM_P1;HPM_P2
2023/01/26 00:01:07;;;;;;;;;;;;;;;21.10;38.54;102585.91;7263255;19;152842;-74
2023/01/26 00:03:34;;;;;;;;;;;;;;;21.11;38.67;102580.03;7255959;19;153059;-74
2023/01/26 00:06:02;;;;;;;;;;;;;;;21.13;38.70;102586.22;7258603;19;153913;-74
2023/01/26 00:08:29;;;;;;;;;;;;;;;21.14;38.53;102578.66;7237331;19;157858;-73
2023/01/26 00:10:55;;;;;;;;;;;;;;;21.16;38.89;102579.22;7251042;19;154132;-73
2023/01/26 00:13:23;;;;;;;;;;;;;;;21.16;38.44;102568.00;7256340;19;154499;-73
2023/01/26 00:15:50;;;;;;;;;;;;;;;21.17;38.89;102566.84;7261859;19;153907;-73
2023/01/26 00:18:18;;;;;;;;;;;;;;;21.18;38.57;102566.59;7258202;19;154000;-73
2023/01/26 00:20:44;;;;;;;;;;;;;;;21.17;38.76;102566.84;7257973;19;157256;-73
2023/01/26 00:23:11;;;;;;;;;;;;;;;21.17;38.63;102569.66;7268209;19;154457;-73
2023/01/26 00:25:39;;;;;;;;;;;;;;;21.17;38.59;102570.50;7257946;19;153850;-73
2023/01/26 00:28:06;;;;;;;;;;;;;;;21.15;38.89;102569.94;7255322;19;154326;-73
2023/01/26 00:30:34;;;;;;;;;;;;;;;21.16;38.61;102570.81;7257807;19;152904;-74
2023/01/26 00:33:00;;;;;;;;;;;;;;;21.13;38.79;102563.75;7256617;19;154419;-74
2023/01/26 00:35:28;;;;;;;;;;;;;;;21.12;39.00;102570.44;7255729;19;154800;-74
2023/01/26 00:37:55;;;;;;;;;;;;;;;21.10;38.67;102563.41;7259710;19;154441;-74
2023/01/26 00:40:22;;;;;;;;;;;;;;;21.09;38.93;102572.97;7259038;19;154636;-72
2023/01/26 00:42:49;;;;;;;;;;;;;;;21.06;38.76;102567.91;7258679;19;153835;-72
2023/01/26 00:45:16;;;;;;;;;;;;;;;21.04;38.73;102568.16;7264594;19;156431;-73
2023/01/26 00:47:43;;;;;;;;;;;;;;;21.03;39.18;102582.50;7260556;19;153221;-72
2023/01/26 00:50:13;;;;;;;;;;;;;;;21.00;39.11;102578.25;7257679;19;153953;-72
2023/01/26 00:52:40;;;;;;;;;;;;;;;20.97;38.93;102575.16;7253722;19;155873;-72
2023/01/26 00:55:07;;;;;;;;;;;;;;;20.96;39.33;102573.44;7256609;19;154630;-73
2023/01/26 00:57:34;;;;;;;;;;;;;;;20.92;39.09;102570.34;7257381;19;153584;-72
2023/01/26 01:00:01;;;;;;;;;;;;;;;20.89;39.03;102570.91;7257062;19;153294;-73
2023/01/26 01:02:28;;;;;;;;;;;;;;;20.88;39.43;102585.22;7256959;19;153390;-72
2023/01/26 01:04:57;;;;;;;;;;;;;;;20.81;39.64;102575.03;7257493;19;153502;-74
2023/01/26 01:07:26;;;;;;;;;;;;;;;20.81;39.24;102571.38;7262705;19;156569;-73
2023/01/26 01:09:53;;;;;;;;;;;;;;;20.75;39.38;102567.72;7257621;19;153455;-72
2023/01/26 01:12:20;;;;;;;;;;;;;;;20.72;39.57;102578.63;7256108;19;155937;-72
2023/01/26 01:14:47;;;;;;;;;;;;;;;20.69;39.68;102571.59;7255745;19;154172;-72
2023/01/26 01:17:14;;;;;;;;;;;;;;;20.66;39.77;102576.91;7257243;19;154982;-72
2023/01/26 01:19:41;;;;;;;;;;;;;;;20.62;39.74;102573.81;7253658;19;155439;-72
2023/01/26 01:22:08;;;;;;;;;;;;;;;20.59;39.98;102568.72;7255411;19;153389;-73
2023/01/26 01:24:35;;;;;;;;;;;;;;;20.57;39.79;102579.38;7258908;19;153826;-72
2023/01/26 01:27:03;;;;;;;;;;;;;;;20.57;39.88;102581.34;7256949;19;156134;-72
2023/01/26 01:29:30;;;;;;;;;;;;;;;20.54;39.85;102584.66;7264822;19;154588;-72
2023/01/26 01:31:57;;;;;;;;;;;;;;;20.58;40.10;102586.66;7252910;19;155301;-72
2023/01/26 01:34:24;;;;;;;;;;;;;;;20.59;39.61;102593.97;7257671;19;154346;-72
2023/01/26 01:36:51;;;;;;;;;;;;;;;20.58;39.77;102586.66;7257686;19;152422;-73
2023/01/26 01:39:20;;;;;;;;;;;;;;;20.55;39.74;102594.78;7260199;19;155418;-74
2023/01/26 01:41:47;;;;;;;;;;;;;;;20.51;39.82;102588.03;7256502;19;153138;-74
2023/01/26 01:44:17;;;;;;;;;;;;;;;20.48;39.75;102599.81;7259661;19;153198;-74
2023/01/26 01:46:47;;;;;;;;;;;;;;;20.46;39.63;102593.59;7259608;19;153804;-74
2023/01/26 01:49:17;;;;;;;;;;;;;;;20.44;39.67;102593.88;7260175;19;153186;-73
2023/01/26 01:51:48;;;;;;;;;;;;;;;20.41;39.61;102591.59;7263783;19;154834;-74
2023/01/26 01:54:19;;;;;;;;;;;;;;;20.40;39.70;102601.97;7255011;19;154731;-74
2023/01/26 01:56:50;;;;;;;;;;;;;;;20.38;39.66;102595.78;7256746;19;153456;-74
2023/01/26 01:59:20;;;;;;;;;;;;;;;20.34;39.90;102608.66;7253886;19;155759;-73
2023/01/26 02:01:49;;;;;;;;;;;;;;;20.31;39.85;102602.72;7256935;19;153795;-73
2023/01/26 02:04:16;;;;;;;;;;;;;;;20.28;40.13;102592.84;7258342;19;157549;-73
2023/01/26 02:06:47;;;;;;;;;;;;;;;20.24;39.85;102604.88;7255325;19;155133;-76
2023/01/26 02:10:17;;;;;;;;;;;;;;;20.21;39.76;102595.03;7253599;19;152168;-74
2023/01/26 02:12:04;;;;;;;;;;;;;;;20.22;40.11;102595.88;7263104;19;155076;-74
2023/01/26 02:14:32;;;;;;;;;;;;;;;20.15;39.82;102584.88;7254512;19;153560;-73
2023/01/26 02:16:59;;;;;;;;;;;;;;;20.12;39.79;102591.03;7257578;19;154315;-74
2023/01/26 02:19:29;;;;;;;;;;;;;;;20.06;40.20;102583.66;7256231;19;157672;-74
2023/01/26 02:21:59;;;;;;;;;;;;;;;20.07;40.04;102584.50;7257563;19;153113;-73
2023/01/26 02:24:32;;;;;;;;;;;;;;;20.02;39.99;102581.66;7256594;19;153744;-74
2023/01/26 02:27:01;;;;;;;;;;;;;;;20.03;39.84;102581.41;7256585;19;153219;-74
2023/01/26 02:29:30;;;;;;;;;;;;;;;19.99;40.19;102571.78;7256949;19;153261;-74
2023/01/26 02:31:58;;;;;;;;;;;;;;;19.95;40.20;102587.47;7258469;19;153101;-74
2023/01/26 02:34:27;;;;;;;;;;;;;;;19.95;40.29;102587.47;7263459;19;154630;-74
2023/01/26 02:36:55;;;;;;;;;;;;;;;19.89;40.38;102585.72;7256795;19;155437;-74
2023/01/26 02:39:25;;;;;;;;;;;;;;;19.88;40.15;102592.44;7255673;19;153971;-73
2023/01/26 02:44:24;;;;;;;;;;;;;;;19.84;40.46;102592.13;7263171;19;154064;-74
2023/01/26 02:46:51;;;;;;;;;;;;;;;19.82;40.34;102590.69;7263233;19;154503;-74
2023/01/26 02:51:49;;;;;;;;;;;;;;;19.75;40.55;102585.31;7262464;19;153115;-74
2023/01/26 02:56:48;;;;;;;;;;;;;;;19.69;40.52;102594.75;7269040;19;153390;-75
2023/01/26 02:59:17;;;;;;;;;;;;;;;19.64;40.31;102600.31;7262704;19;154632;-74
2023/01/26 03:01:44;;;;;;;;;;;;;;;19.65;40.45;102587.97;7261403;19;154899;-74
2023/01/26 03:04:11;;;;;;;;;;;;;;;19.61;40.65;102592.44;7262142;19;153834;-74
2023/01/26 03:06:37;;;;;;;;;;;;;;;19.56;40.58;102592.38;7261816;19;155804;-75
2023/01/26 03:09:04;;;;;;;;;;;;;;;19.55;40.83;102590.66;7261513;19;154357;-75
2023/01/26 03:11:40;;;;;;;;;;;;;;;19.57;40.70;102593.22;7263515;19;154353;-74
2023/01/26 03:14:09;;;;;;;;;;;;;;;19.52;40.66;102599.59;7259435;19;156011;-75
2023/01/26 03:16:36;;;;;;;;;;;;;;;19.51;40.47;102592.28;7262428;19;154094;-75
2023/01/26 03:29:05;;;;;;;;;;;;;;;19.40;40.66;102598.84;7259116;19;153725;-75
2023/01/26 03:31:32;;;;;;;;;;;;;;;19.37;40.75;102599.38;7262370;19;154396;-75
2023/01/26 03:33:59;;;;;;;;;;;;;;;19.32;41.11;102602.94;7259759;19;155022;-74
2023/01/26 03:36:26;;;;;;;;;;;;;;;19.34;41.27;102597.09;7260962;19;153239;-75
2023/01/26 03:38:53;;;;;;;;;;;;;;;19.30;41.55;102601.53;7258062;19;153976;-77
2023/01/26 03:56:23;;;;;;;;;;;;;;;19.18;41.20;102600.78;7262284;19;153248;-74
2023/01/26 03:58:51;;;;;;;;;;;;;;;19.15;40.83;102607.75;7262774;19;152140;-74
2023/01/26 04:01:24;;;;;;;;;;;;;;;19.11;41.02;102612.19;7262505;19;154646;-74
2023/01/26 04:08:56;;;;;;;;;;;;;;;19.00;41.46;102608.38;7261410;19;153962;-76
2023/01/26 04:11:23;;;;;;;;;;;;;;;19.01;41.12;102612.03;7261002;19;154428;-74
2023/01/26 04:23:55;;;;;;;;;;;;;;;18.89;41.19;102611.31;7264949;19;152821;-73
2023/01/26 04:26:23;;;;;;;;;;;;;;;18.88;41.27;102607.66;7257206;19;153980;-73
2023/01/26 04:28:51;;;;;;;;;;;;;;;18.85;41.30;102612.91;7257631;19;153832;-74
2023/01/26 04:31:18;;;;;;;;;;;;;;;18.85;41.19;102618.53;7262016;19;155935;-74
2023/01/26 04:33:45;;;;;;;;;;;;;;;18.80;41.26;102629.63;7257451;19;152765;-74
2023/01/26 04:36:13;;;;;;;;;;;;;;;18.77;41.57;102633.78;7257609;19;153966;-74
2023/01/26 04:38:40;;;;;;;;;;;;;;;18.77;41.55;102639.38;7262492;19;153739;-74
2023/01/26 04:41:07;;;;;;;;;;;;;;;18.74;41.85;102637.09;7258629;19;156038;-75
2023/01/26 04:43:35;;;;;;;;;;;;;;;18.72;42.01;102641.25;7255245;19;153683;-74
2023/01/26 04:46:04;;;;;;;;;;;;;;;18.71;41.64;102648.81;7266311;19;153890;-74
2023/01/26 04:48:32;;;;;;;;;;;;;;;18.72;41.93;102642.09;7259402;19;154108;-74
2023/01/26 04:51:01;;;;;;;;;;;;;;;18.70;42.08;102646.28;7259579;19;154248;-74
2023/01/26 04:53:28;;;;;;;;;;;;;;;18.65;42.13;102642.28;7255828;19;154492;-74
2023/01/26 04:55:55;;;;;;;;;;;;;;;18.64;41.96;102631.34;7257172;19;153621;-74
2023/01/26 04:58:22;;;;;;;;;;;;;;;18.63;42.17;102638.03;7255601;19;156427;-74
2023/01/26 05:00:51;;;;;;;;;;;;;;;18.61;42.53;102637.44;7257851;19;157082;-74
2023/01/26 05:03:18;;;;;;;;;;;;;;;18.62;42.26;102633.56;7254849;19;154409;-73
2023/01/26 05:05:49;;;;;;;;;;;;;;;18.59;42.15;102628.44;7256112;19;154927;-74
2023/01/26 05:08:17;;;;;;;;;;;;;;;18.58;42.18;102624.78;7263757;19;153897;-73
2023/01/26 05:10:45;;;;;;;;;;;;;;;18.56;42.34;102626.16;7257885;19;153236;-73
2023/01/26 05:13:12;;;;;;;;;;;;;;;18.53;42.60;102638.69;7255185;19;153935;-74
2023/01/26 05:15:40;;;;;;;;;;;;;;;18.52;42.37;102638.94;7258840;19;153661;-73
2023/01/26 05:18:08;;;;;;;;;;;;;;;18.50;42.91;102632.72;7257592;19;153851;-73
2023/01/26 05:20:35;;;;;;;;;;;;;;;18.48;42.60;102634.94;7258761;19;153112;-73
2023/01/26 05:23:02;;;;;;;;;;;;;;;18.50;42.94;102643.94;7257016;19;153320;-74
2023/01/26 05:25:29;;;;;;;;;;;;;;;18.51;43.37;102646.47;7257292;19;153456;-73
2023/01/26 05:27:56;;;;;;;;;;;;;;;18.54;43.27;102640.41;7254842;19;155988;-73
2023/01/26 05:30:23;;;;;;;;;;;;;;;18.57;43.95;102642.72;7263219;19;154022;-73
2023/01/26 05:32:50;;;;;;;;;;;;;;;18.61;44.24;102645.84;7256118;19;153126;-73
2023/01/26 05:35:17;;;;;;;;;;;;;;;18.64;44.05;102645.31;7254051;19;153766;-73
2023/01/26 05:37:44;;;;;;;;;;;;;;;18.69;44.11;102650.16;7258743;19;153981;-73
2023/01/26 05:40:11;;;;;;;;;;;;;;;18.73;44.00;102642.94;7260817;19;153805;-74
2023/01/26 05:42:40;;;;;;;;;;;;;;;18.78;44.23;102645.84;7258454;19;153677;-73
2023/01/26 05:45:08;;;;;;;;;;;;;;;18.82;44.13;102641.41;7259044;19;154292;-73
2023/01/26 05:47:35;;;;;;;;;;;;;;;18.86;44.09;102646.25;7256529;19;156245;-73
2023/01/26 05:50:02;;;;;;;;;;;;;;;18.90;44.24;102646.59;7256761;19;154301;-73
2023/01/26 05:52:29;;;;;;;;;;;;;;;18.95;44.05;102649.47;7261765;19;153445;-73
2023/01/26 05:54:56;;;;;;;;;;;;;;;18.99;44.04;102651.50;7253672;19;153439;-73
2023/01/26 05:57:22;;;;;;;;;;;;;;;19.05;44.17;102646.81;7256289;19;154545;-72
2023/01/26 05:59:50;;;;;;;;;;;;;;;19.09;43.74;102648.84;7257589;19;155382;-72
2023/01/26 06:02:17;;;;;;;;;;;;;;;19.16;43.84;102650.63;7256270;19;154189;-73
2023/01/26 06:04:44;;;;;;;;;;;;;;;19.20;43.78;102647.06;7255336;19;155882;-73
2023/01/26 06:09:41;;;;;;;;;;;;;;;19.32;43.54;102658.16;7255101;19;153465;-73
2023/01/26 06:12:15;;;;;;;;;;;;;;;19.36;43.61;102654.56;7254873;19;153551;-73
2023/01/26 06:14:44;;;;;;;;;;;;;;;19.43;43.45;102651.59;7260365;19;154393;-73
2023/01/26 06:17:14;;;;;;;;;;;;;;;19.48;43.46;102651.69;7254013;19;153888;-73
2023/01/26 06:19:41;;;;;;;;;;;;;;;19.53;43.26;102654.56;7253658;19;155402;-73
2023/01/26 06:22:10;;;;;;;;;;;;;;;19.58;42.90;102663.03;7254184;19;152490;-72
2023/01/26 06:24:37;;;;;;;;;;;;;;;19.64;42.83;102655.53;7255828;19;153890;-73
2023/01/26 06:27:05;;;;;;;;;;;;;;;19.70;43.24;102668.53;7255283;19;153860;-74
2023/01/26 06:29:33;;;;;;;;;;;;;;;19.75;43.26;102671.41;7253437;19;154173;-73
2023/01/26 06:32:02;;;;;;;;;;;;;;;19.79;43.01;102673.41;7256981;19;153742;-73
2023/01/26 06:34:29;;;;;;;;;;;;;;;19.84;42.75;102667.88;7263232;19;154717;-74
2023/01/26 06:36:56;;;;;;;;;;;;;;;19.90;42.69;102665.94;7254776;19;155045;-74
2023/01/26 06:39:23;;;;;;;;;;;;;;;19.94;42.77;102667.97;7257796;19;154472;-74
2023/01/26 06:41:50;;;;;;;;;;;;;;;19.99;42.58;102679.25;7256672;19;154412;-73
2023/01/26 06:44:17;;;;;;;;;;;;;;;20.05;42.16;102693.34;7253853;19;154879;-73
2023/01/26 06:46:44;;;;;;;;;;;;;;;20.10;42.25;102693.41;7254750;19;155912;-74
2023/01/26 06:49:12;;;;;;;;;;;;;;;20.15;42.31;102690.66;7254927;19;153350;-73
2023/01/26 06:51:40;;;;;;;;;;;;;;;20.18;41.91;102693.78;7255526;19;153957;-73
2023/01/26 06:54:09;;;;;;;;;;;;;;;20.23;41.79;102693.00;7250422;19;154318;-74
2023/01/26 06:56:36;;;;;;;;;;;;;;;20.29;41.96;102697.56;7260348;19;154010;-73
2023/01/26 06:59:04;;;;;;;;;;;;;;;20.32;41.80;102691.44;7252911;19;155013;-74
2023/01/26 07:01:33;;;;;;;;;;;;;;;20.36;41.90;102699.06;7254242;19;151896;-74
2023/01/26 07:04:01;;;;;;;;;;;;;;;20.41;41.45;102701.06;7252939;19;153683;-74
2023/01/26 07:06:27;;;;;;;;;;;;;;;20.46;41.85;102703.09;7255073;19;153951;-75
2023/01/26 07:08:55;;;;;;;;;;;;;;;20.49;41.66;102713.81;7255699;19;154650;-73
2023/01/26 07:11:24;;;;;;;;;;;;;;;20.53;41.30;102714.97;7256056;19;153810;-74
2023/01/26 07:13:51;;;;;;;;;;;;;;;20.57;41.58;102717.00;7252612;19;156896;-74
2023/01/26 07:16:18;;;;;;;;;;;;;;;20.60;41.30;102722.06;7252667;19;153299;-72
2023/01/26 07:18:45;;;;;;;;;;;;;;;20.65;41.53;102722.13;7263905;19;156957;-73
2023/01/26 07:21:17;;;;;;;;;;;;;;;20.71;41.37;102720.22;7255621;19;153081;-72
2023/01/26 07:23:45;;;;;;;;;;;;;;;20.74;41.44;102723.31;7253176;19;155031;-73
2023/01/26 07:26:12;;;;;;;;;;;;;;;20.76;41.16;102729.50;7251879;19;153577;-73
2023/01/26 07:28:39;;;;;;;;;;;;;;;20.79;41.18;102729.00;7253156;19;153293;-72
2023/01/26 07:31:07;;;;;;;;;;;;;;;20.83;40.62;102726.50;7261456;19;155510;-73
2023/01/26 07:33:34;;;;;;;;;;;;;;;20.86;40.80;102728.75;7260561;19;155473;-74
2023/01/26 07:36:01;;;;;;;;;;;;;;;20.89;40.68;102714.19;7258357;19;153276;-72
2023/01/26 07:38:28;;;;;;;;;;;;;;;20.93;40.72;102706.06;7260400;19;154330;-72
2023/01/26 07:40:56;;;;;;;;;;;;;;;20.96;40.65;102708.34;7263705;19;156946;-72
2023/01/26 07:43:23;;;;;;;;;;;;;;;20.99;40.05;102704.97;7258479;19;154904;-73
2023/01/26 07:45:52;;;;;;;;;;;;;;;21.01;40.39;102731.72;7258130;19;154499;-72
2023/01/26 07:48:20;;;;;;;;;;;;;;;21.03;40.30;102734.25;7260636;19;153434;-72
2023/01/26 07:50:48;;;;;;;;;;;;;;;21.00;39.29;102744.06;7257741;19;155268;-72
2023/01/26 07:55:48;;;;;;;;;;;;;;;20.98;38.63;102739.84;7261998;19;154799;-73
2023/01/26 07:58:16;;;;;;;;;;;;;;;20.96;38.51;102742.91;7260104;19;153505;-72
2023/01/26 08:00:46;;;;;;;;;;;;;;;20.75;37.55;102750.31;7258587;19;153114;-74
2023/01/26 08:03:13;;;;;;;;;;;;;;;20.90;38.10;102741.16;7267837;19;153599;-73
2023/01/26 08:05:42;;;;;;;;;;;;;;;20.96;37.98;102737.28;7257219;19;154562;-73
2023/01/26 08:08:09;;;;;;;;;;;;;;;20.98;37.76;102749.13;7259095;19;152307;-73
2023/01/26 08:10:38;;;;;;;;;;;;;;;21.00;37.74;102741.25;7260773;19;155051;-73
2023/01/26 08:13:05;;;;;;;;;;;;;;;20.99;38.08;102731.13;7259872;19;155099;-73
2023/01/26 08:15:32;;;;;;;;;;;;;;;20.98;37.69;102728.59;7258994;19;154084;-73
2023/01/26 08:18:02;;;;;;;;;;;;;;;20.97;37.81;102730.56;7260336;19;154179;-74
2023/01/26 08:20:30;;;;;;;;;;;;;;;20.95;37.84;102751.59;7260574;19;153800;-73
2023/01/26 08:23:01;;;;;;;;;;;;;;;20.93;38.20;102753.84;7269223;19;153538;-73
2023/01/26 08:25:28;;;;;;;;;;;;;;;20.91;37.91;102748.47;7256809;19;153981;-73
2023/01/26 08:27:55;;;;;;;;;;;;;;;20.91;37.85;102744.81;7257215;19;152796;-74
2023/01/26 08:30:23;;;;;;;;;;;;;;;20.88;38.04;102736.94;7259799;19;154682;-75
2023/01/26 08:32:50;;;;;;;;;;;;;;;20.95;38.51;102745.97;7260049;19;153669;-74
2023/01/26 08:35:17;;;;;;;;;;;;;;;20.95;38.19;102744.00;7259185;19;153486;-74
2023/01/26 08:37:44;;;;;;;;;;;;;;;20.94;38.26;102742.31;7259092;19;153969;-75
2023/01/26 08:40:12;;;;;;;;;;;;;;;20.98;38.12;102751.06;7257941;19;153712;-74
2023/01/26 08:42:40;;;;;;;;;;;;;;;20.99;38.50;102744.31;7258275;19;152880;-74
2023/01/26 08:45:09;;;;;;;;;;;;;;;21.00;38.12;102741.25;7265239;19;153987;-74
2023/01/26 08:47:37;;;;;;;;;;;;;;;21.02;38.05;102752.22;7259594;19;154715;-74
2023/01/26 08:50:05;;;;;;;;;;;;;;;21.05;38.46;102762.94;7257348;19;154273;-74
2023/01/26 08:52:32;;;;;;;;;;;;;;;21.05;38.32;102758.16;7255387;19;153825;-74
2023/01/26 08:54:59;;;;;;;;;;;;;;;21.06;38.16;102767.44;7257629;19;153393;-73
2023/01/26 08:57:27;;;;;;;;;;;;;;;21.06;38.02;102762.66;7255419;19;154610;-75
2023/01/26 08:59:54;;;;;;;;;;;;;;;21.06;38.09;102759.88;7256923;19;153018;-75
2023/01/26 09:02:21;;;;;;;;;;;;;;;21.05;37.75;102762.94;7257232;19;154146;-74
2023/01/26 09:04:49;;;;;;;;;;;;;;;21.04;37.83;102762.06;7257009;19;153892;-75
2023/01/26 09:07:16;;;;;;;;;;;;;;;21.04;38.10;102764.03;7266298;19;155192;-75
2023/01/26 09:09:43;;;;;;;;;;;;;;;21.03;38.18;102760.38;7259049;19;155502;-75
2023/01/26 09:12:11;;;;;;;;;;;;;;;21.01;38.18;102768.25;7257179;19;153812;-77
2023/01/26 09:14:40;;;;;;;;;;;;;;;20.99;38.10;102776.09;7259722;19;152526;-75
2023/01/26 09:17:09;;;;;;;;;;;;;;;21.00;37.78;102774.97;7260992;19;156485;-76
2023/01/26 09:19:37;;;;;;;;;;;;;;;20.95;37.63;102782.50;7259305;19;157948;-75
2023/01/26 09:22:04;;;;;;;;;;;;;;;20.97;37.73;102780.28;7261544;19;152752;-76
2023/01/26 09:24:32;;;;;;;;;;;;;;;20.92;37.90;102783.91;7258338;19;155304;-74
2023/01/26 09:26:59;;;;;;;;;;;;;;;20.95;37.35;102776.88;7256456;19;154149;-76
2023/01/26 09:29:26;;;;;;;;;;;;;;;20.90;37.59;102771.22;7265144;19;152937;-75
2023/01/26 09:31:54;;;;;;;;;;;;;;;20.92;37.86;102778.28;7258029;19;153629;-76
2023/01/26 09:34:24;;;;;;;;;;;;;;;20.96;37.84;102775.78;7257430;19;153804;-74
2023/01/26 09:36:51;;;;;;;;;;;;;;;20.96;39.01;102787.00;7255384;19;154099;-73
2023/01/26 09:39:19;;;;;;;;;;;;;;;20.98;38.95;102782.84;7257791;19;155399;-74
2023/01/26 09:41:55;;;;;;;;;;;;;;;21.00;39.06;102785.34;7223429;19;155445;-75
2023/01/26 09:44:23;;;;;;;;;;;;;;;21.02;39.13;102786.81;7251002;19;155260;-74
2023/01/26 09:46:53;;;;;;;;;;;;;;;21.03;38.86;102784.84;7253956;19;153660;-74
2023/01/26 09:49:25;;;;;;;;;;;;;;;21.02;38.75;102788.75;7254627;19;153274;-74
2023/01/26 09:51:57;;;;;;;;;;;;;;;21.00;38.74;102791.84;7260009;19;154812;-73
2023/01/26 09:54:26;;;;;;;;;;;;;;;21.02;38.71;102789.63;7255992;19;153747;-74
2023/01/26 09:56:54;;;;;;;;;;;;;;;21.02;38.92;102791.56;7259732;19;154211;-75
2023/01/26 09:59:24;;;;;;;;;;;;;;;21.00;38.53;102791.84;7256928;19;155168;-74
2023/01/26 10:01:58;;;;;;;;;;;;;;;20.97;38.81;102799.97;7260811;19;153576;-74
2023/01/26 10:04:31;;;;;;;;;;;;;;;20.98;38.61;102804.47;7260115;19;155372;-74
2023/01/26 10:07:01;;;;;;;;;;;;;;;20.95;38.53;102804.97;7257982;19;156195;-74
2023/01/26 10:09:32;;;;;;;;;;;;;;;20.94;38.50;102806.94;7257639;19;153683;-74
2023/01/26 10:12:02;;;;;;;;;;;;;;;20.91;38.33;102796.25;7255008;19;153635;-74
2023/01/26 10:14:34;;;;;;;;;;;;;;;20.88;38.46;102802.41;7260646;19;155294;-74
2023/01/26 10:17:06;;;;;;;;;;;;;;;20.85;38.41;102802.91;7255381;19;154439;-75
2023/01/26 10:19:39;;;;;;;;;;;;;;;20.83;38.24;102797.59;7254242;19;152869;-74
2023/01/26 10:22:13;;;;;;;;;;;;;;;20.80;38.71;102798.09;7257106;19;153868;-74
2023/01/26 10:24:41;;;;;;;;;;;;;;;20.79;38.63;102793.59;7254393;19;153754;-74
2023/01/26 10:27:12;;;;;;;;;;;;;;;20.77;38.76;102794.97;7252108;19;153597;-74
2023/01/26 10:29:40;;;;;;;;;;;;;;;20.77;38.43;102803.41;7253447;19;154245;-74
2023/01/26 10:32:12;;;;;;;;;;;;;;;20.73;38.41;102805.03;7254778;19;153763;-75
2023/01/26 10:34:41;;;;;;;;;;;;;;;20.68;38.51;102814.25;7261955;19;158715;-74
2023/01/26 10:37:11;;;;;;;;;;;;;;;20.67;38.93;102811.75;7255463;19;153968;-74
2023/01/26 10:39:55;;;;;;;;;;;;;;;20.65;38.80;102803.56;7253150;19;153817;-74
2023/01/26 10:42:25;;;;;;;;;;;;;;;20.60;38.61;102811.94;7251331;19;153798;-74
2023/01/26 10:44:52;;;;;;;;;;;;;;;20.60;38.87;102811.09;7250814;19;154655;-74
2023/01/26 10:47:21;;;;;;;;;;;;;;;20.58;38.59;102807.72;7253425;19;153987;-73
2023/01/26 10:49:49;;;;;;;;;;;;;;;20.55;38.94;102806.25;7253535;19;153607;-74
2023/01/26 10:52:17;;;;;;;;;;;;;;;20.53;38.78;102802.88;7252231;19;153801;-73
2023/01/26 10:54:45;;;;;;;;;;;;;;;20.53;39.24;102802.03;7252815;19;155269;-73
2023/01/26 10:57:15;;;;;;;;;;;;;;;20.52;38.91;102801.19;7259541;19;153509;-74
2023/01/26 10:59:46;;;;;;;;;;;;;;;20.49;38.77;102793.25;7252135;19;153742;-73
2023/01/26 11:02:14;;;;;;;;;;;;;;;20.46;38.88;102804.19;7252925;19;152016;-73
2023/01/26 11:04:45;;;;;;;;;;;;;;;20.42;39.23;102790.66;7260149;19;154112;-73
2023/01/26 11:07:24;;;;;;;;;;;;;;;20.41;39.27;102793.72;7260057;19;154122;-73
2023/01/26 11:09:51;;;;;;;;;;;;;;;20.42;38.92;102798.25;7258131;19;154614;-73
2023/01/26 11:12:20;;;;;;;;;;;;;;;20.40;38.86;102800.44;7261563;19;154320;-73
2023/01/26 11:14:51;;;;;;;;;;;;;;;20.39;39.19;102808.06;7259050;19;154923;-73
2023/01/26 11:17:22;;;;;;;;;;;;;;;20.36;39.18;102797.31;7259740;19;154617;-76
2023/01/26 11:19:54;;;;;;;;;;;;;;;20.31;38.98;102799.22;7266128;19;154361;-73
2023/01/26 11:22:25;;;;;;;;;;;;;;;20.29;39.26;102799.47;7259048;19;153416;-73
2023/01/26 11:24:59;;;;;;;;;;;;;;;20.26;39.46;102807.56;7259227;19;154910;-73
2023/01/26 11:27:28;;;;;;;;;;;;;;;20.23;39.14;102811.72;7259674;19;153611;-73
2023/01/26 11:30:06;;;;;;;;;;;;;;;20.20;39.25;102798.22;7262740;19;153168;-73
2023/01/26 11:32:45;;;;;;;;;;;;;;;20.20;39.04;102792.63;7261782;19;153566;-72
2023/01/26 11:35:22;;;;;;;;;;;;;;;20.16;39.17;102787.78;7263395;19;153815;-73
2023/01/26 11:37:59;;;;;;;;;;;;;;;20.15;39.46;102794.50;7259857;19;153321;-73
2023/01/26 11:40:33;;;;;;;;;;;;;;;20.10;39.15;102784.06;7260569;19;153991;-73
2023/01/26 11:43:12;;;;;;;;;;;;;;;20.07;39.62;102790.19;7265707;19;156004;-74
2023/01/26 11:45:48;;;;;;;;;;;;;;;20.03;39.30;102782.56;7255311;19;153583;-74
2023/01/26 11:48:25;;;;;;;;;;;;;;;20.01;39.65;102787.56;7261335;19;154616;-75
2023/01/26 11:50:53;;;;;;;;;;;;;;;19.97;39.42;102779.69;7258270;19;153398;-74
2023/01/26 11:53:37;;;;;;;;;;;;;;;19.94;39.39;102777.38;7261705;19;153572;-74
2023/01/26 11:56:05;;;;;;;;;;;;;;;19.91;39.46;102777.06;7255203;19;156082;-73
2023/01/26 11:58:36;;;;;;;;;;;;;;;19.91;39.40;102782.66;7258817;19;154110;-74
2023/01/26 12:01:14;;;;;;;;;;;;;;;19.87;39.78;102779.53;7259011;19;153751;-73
2023/01/26 12:03:45;;;;;;;;;;;;;;;19.86;39.85;102772.22;7260389;19;155546;-74
2023/01/26 12:06:16;;;;;;;;;;;;;;;19.86;39.85;102776.97;7266651;19;154059;-73
2023/01/26 12:08:49;;;;;;;;;;;;;;;19.86;39.54;102771.38;7260550;19;154585;-73
2023/01/26 12:11:22;;;;;;;;;;;;;;;19.88;39.84;102772.84;7262689;19;153774;-74
2023/01/26 12:13:53;;;;;;;;;;;;;;;19.88;39.80;102771.97;7258895;19;154006;-73
2023/01/26 12:16:24;;;;;;;;;;;;;;;19.91;39.55;102769.50;7254738;19;155538;-75
2023/01/26 12:18:58;;;;;;;;;;;;;;;19.93;39.83;102764.47;7259797;19;152697;-73
2023/01/26 12:21:38;;;;;;;;;;;;;;;19.96;39.73;102763.97;7258976;19;153916;-74
2023/01/26 12:24:07;;;;;;;;;;;;;;;20.01;39.73;102763.19;7257858;19;154369;-74
2023/01/26 12:26:55;;;;;;;;;;;;;;;20.06;39.78;102762.41;7261320;19;154026;-74
2023/01/26 12:29:27;;;;;;;;;;;;;;;20.08;39.51;102763.81;7266705;19;154766;-74
2023/01/26 12:31:59;;;;;;;;;;;;;;;20.12;39.54;102744.53;7262144;19;154887;-75
2023/01/26 12:34:28;;;;;;;;;;;;;;;20.16;39.63;102759.72;7261592;19;155280;-74
2023/01/26 12:36:57;;;;;;;;;;;;;;;20.19;39.38;102760.03;7258444;19;156565;-74
2023/01/26 12:39:32;;;;;;;;;;;;;;;20.23;39.30;102765.97;7258811;19;153477;-74
2023/01/26 12:42:09;;;;;;;;;;;;;;;20.26;39.39;102765.47;7261785;19;154439;-74
2023/01/26 12:44:36;;;;;;;;;;;;;;;20.29;39.17;102768.59;7263155;19;154065;-74
2023/01/26 12:47:13;;;;;;;;;;;;;;;20.33;39.61;102768.94;7236192;19;157476;-80
2023/01/26 12:49:46;;;;;;;;;;;;;;;20.38;39.08;102763.38;7262173;19;157501;-78
2023/01/26 12:52:19;;;;;;;;;;;;;;;20.40;39.26;102766.75;7261738;19;153068;-78
2023/01/26 12:54:52;;;;;;;;;;;;;;;20.44;39.15;102772.72;7259732;19;153660;-78
2023/01/26 12:57:20;;;;;;;;;;;;;;;20.48;38.90;102774.75;7258840;19;153665;-79
2023/01/26 12:59:48;;;;;;;;;;;;;;;20.51;39.27;102767.72;7258062;19;153026;-80
2023/01/26 13:02:16;;;;;;;;;;;;;;;20.54;38.98;102756.81;7262377;19;153526;-79
2023/01/26 13:04:44;;;;;;;;;;;;;;;20.57;39.15;102761.06;7257386;19;154664;-78
2023/01/26 13:07:32;;;;;;;;;;;;;;;20.59;38.90;102754.06;7261832;19;153355;-79
2023/01/26 13:10:07;;;;;;;;;;;;;;;20.63;39.29;102757.19;7262255;19;153531;-79
2023/01/26 13:12:44;;;;;;;;;;;;;;;20.66;39.01;102757.53;7272269;19;154365;-79
2023/01/26 13:15:13;;;;;;;;;;;;;;;20.70;39.17;102755.88;7259996;19;153048;-78
2023/01/26 13:17:41;;;;;;;;;;;;;;;20.73;39.13;102754.47;7257356;19;154502;-78
2023/01/26 13:20:18;;;;;;;;;;;;;;;20.74;38.63;102757.03;7258936;19;154304;-78
2023/01/26 13:22:46;;;;;;;;;;;;;;;20.77;38.79;102756.50;7260481;19;154551;-79
2023/01/26 13:25:13;;;;;;;;;;;;;;;20.80;38.46;102760.75;7259302;19;153450;-79
2023/01/26 13:27:53;;;;;;;;;;;;;;;20.80;38.69;102760.75;7254990;19;154029;-79
2023/01/26 13:30:21;;;;;;;;;;;;;;;20.81;38.87;102756.81;7259191;19;155755;-78